sensor_id;sensor_type;location;lat;lon;timestamp;pressure;altitude;pressure_sealevel;temperature;humidity
818;BME280;391;51.052;6.954;2023-02-12T00:01:08;103128.25;;;8.84;91.64
818;BME280;391;51.052;6.954;2023-02-12T00:03:11;103130.75;;;8.83;91.66
818;BME280;391;51.052;6.954;2023-02-12T00:05:15;103131.75;;;8.85;91.72
818;BME280;391;51.052;6.954;2023-02-12T00:07:18;103124.50;;;8.81;91.26
818;BME280;391;51.052;6.954;2023-02-12T00:09:23;103118.88;;;8.86;91.77
818;BME280;391;51.052;6.954;2023-02-12T00:11:28;103098.72;;;8.72;91.63
818;BME280;391;51.052;6.954;2023-02-12T00:13:32;103127.81;;;8.90;91.47
818;BME280;391;51.052;6.954;2023-02-12T00:15:37;103141.94;;;8.93;91.58
818;BME280;391;51.052;6.954;2023-02-12T00:17:41;103056.66;;;8.43;91.13
818;BME280;391;51.052;6.954;2023-02-12T00:19:45;103137.75;;;8.84;91.32
818;BME280;391;51.052;6.954;2023-02-12T00:21:49;103133.69;;;8.76;91.48
818;BME280;391;51.052;6.954;2023-02-12T00:23:52;103140.13;;;8.69;91.57
818;BME280;391;51.052;6.954;2023-02-12T00:25:57;103131.97;;;8.65;91.66
818;BME280;391;51.052;6.954;2023-02-12T00:28:00;103130.63;;;8.70;91.78
818;BME280;391;51.052;6.954;2023-02-12T00:30:05;103133.69;;;8.76;91.38
818;BME280;391;51.052;6.954;2023-02-12T00:32:09;103135.81;;;8.81;91.48
818;BME280;391;51.052;6.954;2023-02-12T00:34:12;103130.75;;;8.83;91.41
818;BME280;391;51.052;6.954;2023-02-12T00:36:18;103137.19;;;8.88;91.34
818;BME280;391;51.052;6.954;2023-02-12T00:38:22;103135.63;;;8.90;91.71
818;BME280;391;51.052;6.954;2023-02-12T00:40:25;103131.97;;;8.88;91.34
818;BME280;391;51.052;6.954;2023-02-12T00:42:30;103131.06;;;8.87;91.59
818;BME280;391;51.052;6.954;2023-02-12T00:44:33;103125.09;;;8.88;91.88
818;BME280;391;51.052;6.954;2023-02-12T00:46:37;103132.22;;;8.91;91.62
818;BME280;391;51.052;6.954;2023-02-12T00:48:41;103125.31;;;8.91;91.62
818;BME280;391;51.052;6.954;2023-02-12T00:50:45;103124.53;;;8.92;91.70
818;BME280;391;51.052;6.954;2023-02-12T00:52:49;103131.44;;;8.92;91.62
818;BME280;391;51.052;6.954;2023-02-12T00:54:53;103127.81;;;8.90;91.08
818;BME280;391;51.052;6.954;2023-02-12T00:56:56;103122.47;;;8.88;91.62
818;BME280;391;51.052;6.954;2023-02-12T00:59:05;103127.59;;;8.87;91.11
818;BME280;391;51.052;6.954;2023-02-12T01:01:09;103119.78;;;8.87;91.53
818;BME280;391;51.052;6.954;2023-02-12T01:03:13;103118.19;;;8.89;91.37
818;BME280;391;51.052;6.954;2023-02-12T01:05:17;103121.56;;;8.88;91.42
818;BME280;391;51.052;6.954;2023-02-12T01:07:20;103129.38;;;8.88;91.26
818;BME280;391;51.052;6.954;2023-02-12T01:09:24;103123.41;;;8.89;91.07
818;BME280;391;51.052;6.954;2023-02-12T01:11:27;103130.19;;;8.87;91.20
818;BME280;391;51.052;6.954;2023-02-12T01:13:31;103125.63;;;8.84;91.16
818;BME280;391;51.052;6.954;2023-02-12T01:15:36;103128.94;;;8.82;90.89
818;BME280;391;51.052;6.954;2023-02-12T01:17:40;103121.91;;;8.81;90.87
818;BME280;391;51.052;6.954;2023-02-12T01:19:43;103094.88;;;8.56;90.95
818;BME280;391;51.052;6.954;2023-02-12T01:21:48;103117.06;;;8.74;90.98
818;BME280;391;51.052;6.954;2023-02-12T01:23:51;103123.16;;;8.74;91.06
818;BME280;391;51.052;6.954;2023-02-12T01:25:54;103113.56;;;8.73;90.80
818;BME280;391;51.052;6.954;2023-02-12T01:28:00;103124.06;;;8.75;90.79
818;BME280;391;51.052;6.954;2023-02-12T01:30:05;103115.03;;;8.70;90.84
818;BME280;391;51.052;6.954;2023-02-12T01:32:10;103124.41;;;8.68;91.31
818;BME280;391;51.052;6.954;2023-02-12T01:34:14;103123.84;;;8.72;90.99
818;BME280;391;51.052;6.954;2023-02-12T01:36:17;103119.44;;;8.71;90.96
818;BME280;391;51.052;6.954;2023-02-12T01:38:22;103120.44;;;8.61;91.07
818;BME280;391;51.052;6.954;2023-02-12T01:40:26;103129.50;;;8.55;91.51
818;BME280;391;51.052;6.954;2023-02-12T01:42:29;103117.25;;;8.54;91.34
818;BME280;391;51.052;6.954;2023-02-12T01:44:33;103092.03;;;8.41;91.14
818;BME280;391;51.052;6.954;2023-02-12T01:46:37;103076.91;;;8.35;91.23
818;BME280;391;51.052;6.954;2023-02-12T01:48:44;103128.56;;;8.66;91.54
818;BME280;391;51.052;6.954;2023-02-12T01:50:50;103123.59;;;8.69;91.25
818;BME280;391;51.052;6.954;2023-02-12T01:52:56;103125.44;;;8.70;91.12
818;BME280;391;51.052;6.954;2023-02-12T01:55:03;103124.50;;;8.69;91.15
818;BME280;391;51.052;6.954;2023-02-12T01:57:08;103113.19;;;8.69;91.37
818;BME280;391;51.052;6.954;2023-02-12T01:59:14;103117.41;;;8.67;91.54
818;BME280;391;51.052;6.954;2023-02-12T02:01:20;103124.16;;;8.65;91.61
818;BME280;391;51.052;6.954;2023-02-12T02:03:25;103119.09;;;8.66;91.38
818;BME280;391;51.052;6.954;2023-02-12T02:05:40;103013.44;;;8.10;91.47
818;BME280;391;51.052;6.954;2023-02-12T02:07:45;103111.75;;;8.72;91.20
818;BME280;391;51.052;6.954;2023-02-12T02:09:48;103118.84;;;8.75;90.99
818;BME280;391;51.052;6.954;2023-02-12T02:11:52;103114.56;;;8.75;91.47
818;BME280;391;51.052;6.954;2023-02-12T02:14:13;103112.09;;;8.77;91.07
818;BME280;391;51.052;6.954;2023-02-12T02:16:37;103108.44;;;8.75;91.48
818;BME280;391;51.052;6.954;2023-02-12T02:18:46;103111.19;;;8.76;91.15
818;BME280;391;51.052;6.954;2023-02-12T02:21:20;103127.00;;;8.79;91.16
818;BME280;391;51.052;6.954;2023-02-12T02:26:27;103114.09;;;8.81;91.25
818;BME280;391;51.052;6.954;2023-02-12T02:28:52;103107.34;;;8.83;91.05
818;BME280;391;51.052;6.954;2023-02-12T02:31:03;103081.66;;;8.64;90.82
818;BME280;391;51.052;6.954;2023-02-12T02:33:21;103111.28;;;8.78;90.88
818;BME280;391;51.052;6.954;2023-02-12T02:35:31;103084.03;;;8.61;90.95
818;BME280;391;51.052;6.954;2023-02-12T02:37:38;103106.75;;;8.75;91.28
818;BME280;391;51.052;6.954;2023-02-12T02:39:47;103110.13;;;8.74;90.56
818;BME280;391;51.052;6.954;2023-02-12T02:41:55;103112.50;;;8.71;90.69
818;BME280;391;51.052;6.954;2023-02-12T02:44:04;103103.72;;;8.69;91.05
818;BME280;391;51.052;6.954;2023-02-12T02:46:14;103103.72;;;8.69;90.99
818;BME280;391;51.052;6.954;2023-02-12T02:48:23;103106.31;;;8.69;91.09
818;BME280;391;51.052;6.954;2023-02-12T02:50:29;103101.00;;;8.68;91.04
818;BME280;391;51.052;6.954;2023-02-12T02:52:42;103089.91;;;8.59;90.97
818;BME280;391;51.052;6.954;2023-02-12T02:54:50;103101.66;;;8.65;91.15
818;BME280;391;51.052;6.954;2023-02-12T02:57:03;103102.47;;;8.64;90.70
818;BME280;391;51.052;6.954;2023-02-12T02:59:10;103092.72;;;8.62;91.04
818;BME280;391;51.052;6.954;2023-02-12T03:01:17;103098.16;;;8.65;91.22
818;BME280;391;51.052;6.954;2023-02-12T03:03:26;103099.06;;;8.65;91.15
818;BME280;391;51.052;6.954;2023-02-12T03:05:36;103105.16;;;8.66;91.19
818;BME280;391;51.052;6.954;2023-02-12T03:07:45;103106.22;;;8.68;90.90
818;BME280;391;51.052;6.954;2023-02-12T03:09:53;103101.88;;;8.68;91.39
818;BME280;391;51.052;6.954;2023-02-12T03:12:02;103105.31;;;8.67;91.27
818;BME280;391;51.052;6.954;2023-02-12T03:14:11;103100.09;;;8.67;90.85
818;BME280;391;51.052;6.954;2023-02-12T03:16:25;103105.16;;;8.66;91.06
818;BME280;391;51.052;6.954;2023-02-12T03:18:34;103059.16;;;8.41;91.26
818;BME280;391;51.052;6.954;2023-02-12T03:20:42;103101.66;;;8.65;91.32
818;BME280;391;51.052;6.954;2023-02-12T03:22:49;103099.97;;;8.66;90.98
818;BME280;391;51.052;6.954;2023-02-12T03:25:05;103106.88;;;8.65;90.95
818;BME280;391;51.052;6.954;2023-02-12T03:27:16;103102.56;;;8.66;91.21
818;BME280;391;51.052;6.954;2023-02-12T03:29:22;103101.66;;;8.65;90.99
818;BME280;391;51.052;6.954;2023-02-12T03:31:32;103100.75;;;8.65;91.03
818;BME280;391;51.052;6.954;2023-02-12T03:33:43;103104.16;;;8.64;91.22
818;BME280;391;51.052;6.954;2023-02-12T03:35:57;103100.75;;;8.65;91.37
818;BME280;391;51.052;6.954;2023-02-12T03:38:08;103098.16;;;8.65;90.98
818;BME280;391;51.052;6.954;2023-02-12T03:40:16;103062.44;;;8.39;91.28
818;BME280;391;51.052;6.954;2023-02-12T03:42:30;103098.97;;;8.64;91.33
818;BME280;391;51.052;6.954;2023-02-12T03:44:52;103105.94;;;8.65;91.01
818;BME280;391;51.052;6.954;2023-02-12T03:47:04;103095.31;;;8.62;91.35
818;BME280;391;51.052;6.954;2023-02-12T03:49:19;103090.72;;;8.58;91.60
818;BME280;391;51.052;6.954;2023-02-12T03:51:27;103096.13;;;8.61;91.46
818;BME280;391;51.052;6.954;2023-02-12T03:53:32;103087.97;;;8.56;91.15
818;BME280;391;51.052;6.954;2023-02-12T03:55:39;103093.41;;;8.59;91.01
818;BME280;391;51.052;6.954;2023-02-12T03:57:44;103086.66;;;8.61;91.10
818;BME280;391;51.052;6.954;2023-02-12T03:59:50;103090.03;;;8.60;90.97
818;BME280;391;51.052;6.954;2023-02-12T04:01:56;103089.25;;;8.61;91.36
818;BME280;391;51.052;6.954;2023-02-12T04:04:05;103092.72;;;8.62;91.13
818;BME280;391;51.052;6.954;2023-02-12T04:06:18;103090.94;;;8.61;91.08
818;BME280;391;51.052;6.954;2023-02-12T04:08:22;103105.72;;;8.62;91.13
818;BME280;391;51.052;6.954;2023-02-12T04:10:33;103102.25;;;8.61;91.18
818;BME280;391;51.052;6.954;2023-02-12T04:12:40;103103.03;;;8.60;91.46
818;BME280;391;51.052;6.954;2023-02-12T04:14:53;103107.69;;;8.64;91.19
818;BME280;391;51.052;6.954;2023-02-12T04:17:02;103101.56;;;8.64;91.68
818;BME280;391;51.052;6.954;2023-02-12T04:19:12;103105.16;;;8.66;91.55
818;BME280;391;51.052;6.954;2023-02-12T04:21:30;103107.91;;;8.67;91.35
818;BME280;391;51.052;6.954;2023-02-12T04:23:47;103092.97;;;8.53;91.64
818;BME280;391;51.052;6.954;2023-02-12T04:25:59;103115.03;;;8.70;91.65
818;BME280;391;51.052;6.954;2023-02-12T04:28:11;103126.22;;;8.69;91.41
818;BME280;391;51.052;6.954;2023-02-12T04:30:20;103117.72;;;8.60;91.55
818;BME280;391;51.052;6.954;2023-02-12T04:32:31;103117.03;;;8.62;91.23
818;BME280;391;51.052;6.954;2023-02-12T04:34:43;103120.78;;;8.66;91.20
818;BME280;391;51.052;6.954;2023-02-12T04:36:53;103093.97;;;8.43;91.08
818;BME280;391;51.052;6.954;2023-02-12T04:39:00;103133.78;;;8.66;91.33
818;BME280;391;51.052;6.954;2023-02-12T04:41:06;103131.09;;;8.64;91.53
818;BME280;391;51.052;6.954;2023-02-12T04:43:09;103131.09;;;8.64;91.49
818;BME280;391;51.052;6.954;2023-02-12T04:45:15;103130.16;;;8.64;91.22
818;BME280;391;51.052;6.954;2023-02-12T04:47:19;103133.78;;;8.66;91.49
818;BME280;391;51.052;6.954;2023-02-12T04:49:23;103122.59;;;8.67;91.09
818;BME280;391;51.052;6.954;2023-02-12T04:51:28;103122.69;;;8.68;91.13
818;BME280;391;51.052;6.954;2023-02-12T04:53:31;103128.03;;;8.70;91.42
818;BME280;391;51.052;6.954;2023-02-12T04:55:35;103126.22;;;8.69;91.44
818;BME280;391;51.052;6.954;2023-02-12T04:57:38;103125.53;;;8.48;91.04
818;BME280;391;51.052;6.954;2023-02-12T04:59:41;103113.56;;;8.17;91.80
818;BME280;391;51.052;6.954;2023-02-12T05:01:45;103133.75;;;8.09;92.51
818;BME280;391;51.052;6.954;2023-02-12T05:03:48;103134.41;;;8.07;93.34
818;BME280;391;51.052;6.954;2023-02-12T05:05:51;103129.06;;;7.93;93.68
818;BME280;391;51.052;6.954;2023-02-12T05:07:57;103130.44;;;8.00;94.10
818;BME280;391;51.052;6.954;2023-02-12T05:10:00;103127.53;;;8.07;93.95
818;BME280;391;51.052;6.954;2023-02-12T05:12:04;103103.56;;;7.99;93.32
818;BME280;391;51.052;6.954;2023-02-12T05:14:07;103132.72;;;8.29;93.49
818;BME280;391;51.052;6.954;2023-02-12T05:16:11;103121.88;;;8.34;93.24
818;BME280;391;51.052;6.954;2023-02-12T05:18:14;103125.94;;;8.42;93.13
818;BME280;391;51.052;6.954;2023-02-12T05:20:17;103124.59;;;8.47;92.61
818;BME280;391;51.052;6.954;2023-02-12T05:22:21;103123.69;;;8.47;92.80
818;BME280;391;51.052;6.954;2023-02-12T05:24:25;103115.81;;;8.45;92.78
818;BME280;391;51.052;6.954;2023-02-12T05:26:29;103123.69;;;8.47;92.52
818;BME280;391;51.052;6.954;2023-02-12T05:28:32;103123.59;;;8.45;92.51
818;BME280;391;51.052;6.954;2023-02-12T05:30:36;103140.75;;;8.43;92.48
818;BME280;391;51.052;6.954;2023-02-12T05:32:39;103122.47;;;8.42;92.33
818;BME280;391;51.052;6.954;2023-02-12T05:34:43;103135.78;;;8.46;92.53
818;BME280;391;51.052;6.954;2023-02-12T05:36:46;103134.31;;;8.50;92.24
818;BME280;391;51.052;6.954;2023-02-12T05:38:50;103133.19;;;8.35;92.02
818;BME280;391;51.052;6.954;2023-02-12T05:41:00;103135.44;;;8.20;92.30
818;BME280;391;51.052;6.954;2023-02-12T05:43:04;103142.91;;;8.16;92.54
818;BME280;391;51.052;6.954;2023-02-12T05:45:07;103147.66;;;8.21;92.71
818;BME280;391;51.052;6.954;2023-02-12T05:47:11;103138.28;;;8.23;92.54
818;BME280;391;51.052;6.954;2023-02-12T05:49:14;103143.75;;;8.26;92.39
818;BME280;391;51.052;6.954;2023-02-12T05:51:20;103147.50;;;8.30;92.30
818;BME280;391;51.052;6.954;2023-02-12T05:53:24;103154.75;;;8.34;92.33
818;BME280;391;51.052;6.954;2023-02-12T05:55:27;103147.19;;;8.37;92.59
818;BME280;391;51.052;6.954;2023-02-12T05:57:32;103140.53;;;8.40;92.25
818;BME280;391;51.052;6.954;2023-02-12T05:59:35;103145.97;;;8.43;92.28
818;BME280;391;51.052;6.954;2023-02-12T06:01:41;103145.97;;;8.43;92.17
818;BME280;391;51.052;6.954;2023-02-12T06:03:45;103148.69;;;8.45;92.50
818;BME280;391;51.052;6.954;2023-02-12T06:05:49;103155.81;;;8.47;92.37
818;BME280;391;51.052;6.954;2023-02-12T06:07:52;103153.06;;;8.46;92.08
818;BME280;391;51.052;6.954;2023-02-12T06:09:56;103155.69;;;8.46;92.01
818;BME280;391;51.052;6.954;2023-02-12T06:12:00;103147.88;;;8.46;92.32
818;BME280;391;51.052;6.954;2023-02-12T06:14:07;103153.44;;;8.39;91.96
818;BME280;391;51.052;6.954;2023-02-12T06:16:18;103152.03;;;8.32;92.11
818;BME280;391;51.052;6.954;2023-02-12T06:18:22;103153.59;;;8.30;91.91
818;BME280;391;51.052;6.954;2023-02-12T06:20:25;103146.16;;;8.35;92.12
818;BME280;391;51.052;6.954;2023-02-12T06:22:29;103139.38;;;8.37;92.03
818;BME280;391;51.052;6.954;2023-02-12T06:24:32;103151.69;;;8.39;91.85
818;BME280;391;51.052;6.954;2023-02-12T06:26:36;103166.72;;;8.32;92.05
818;BME280;391;51.052;6.954;2023-02-12T06:28:39;103150.63;;;8.26;92.29
818;BME280;391;51.052;6.954;2023-02-12T06:30:44;103151.69;;;8.28;92.35
818;BME280;391;51.052;6.954;2023-02-12T06:32:48;103136.50;;;8.22;92.28
818;BME280;391;51.052;6.954;2023-02-12T06:34:51;103146.41;;;8.38;92.15
818;BME280;391;51.052;6.954;2023-02-12T06:36:55;103155.44;;;8.43;92.35
818;BME280;391;51.052;6.954;2023-02-12T06:39:00;103120.72;;;8.31;92.31
818;BME280;391;51.052;6.954;2023-02-12T06:41:03;103141.44;;;8.41;92.36
818;BME280;391;51.052;6.954;2023-02-12T06:43:07;103151.63;;;8.49;92.39
818;BME280;391;51.052;6.954;2023-02-12T06:45:10;103152.66;;;8.52;92.16
818;BME280;391;51.052;6.954;2023-02-12T06:47:15;103153.66;;;8.54;92.25
818;BME280;391;51.052;6.954;2023-02-12T06:49:19;103164.19;;;8.55;91.87
818;BME280;391;51.052;6.954;2023-02-12T06:51:22;103158.09;;;8.55;91.85
818;BME280;391;51.052;6.954;2023-02-12T06:53:26;103157.03;;;8.52;92.16
818;BME280;391;51.052;6.954;2023-02-12T06:55:30;103164.06;;;8.54;92.20
818;BME280;391;51.052;6.954;2023-02-12T06:57:33;103164.06;;;8.54;92.17
818;BME280;391;51.052;6.954;2023-02-12T06:59:36;103171.19;;;8.56;92.12
818;BME280;391;51.052;6.954;2023-02-12T07:01:39;103180.69;;;8.56;91.69
818;BME280;391;51.052;6.954;2023-02-12T07:03:47;103172.09;;;8.57;91.79
818;BME280;391;51.052;6.954;2023-02-12T07:05:51;103176.53;;;8.58;92.12
818;BME280;391;51.052;6.954;2023-02-12T07:07:54;103179.91;;;8.57;92.10
818;BME280;391;51.052;6.954;2023-02-12T07:09:58;103130.44;;;8.33;92.11
818;BME280;391;51.052;6.954;2023-02-12T07:12:01;103184.56;;;8.61;92.22
818;BME280;391;51.052;6.954;2023-02-12T07:14:05;103178.44;;;8.60;91.47
818;BME280;391;51.052;6.954;2023-02-12T07:16:11;103187.38;;;8.64;91.79
818;BME280;391;51.052;6.954;2023-02-12T07:18:15;103191.31;;;8.59;91.71
818;BME280;391;51.052;6.954;2023-02-12T07:20:20;103198.09;;;8.57;91.98
818;BME280;391;51.052;6.954;2023-02-12T07:22:24;103190.44;;;8.58;91.83
818;BME280;391;51.052;6.954;2023-02-12T07:24:27;103193.44;;;8.52;91.66
818;BME280;391;51.052;6.954;2023-02-12T07:26:30;103191.75;;;8.53;91.72
818;BME280;391;51.052;6.954;2023-02-12T07:28:34;103196.28;;;8.56;91.64
818;BME280;391;51.052;6.954;2023-02-12T07:30:38;103196.06;;;8.52;91.52
818;BME280;391;51.052;6.954;2023-02-12T07:32:43;103192.41;;;8.39;91.84
818;BME280;391;51.052;6.954;2023-02-12T07:34:47;103192.59;;;8.30;91.95
818;BME280;391;51.052;6.954;2023-02-12T07:36:52;103190.81;;;8.29;92.12
818;BME280;391;51.052;6.954;2023-02-12T07:38:56;103167.91;;;8.25;92.24
818;BME280;391;51.052;6.954;2023-02-12T07:41:05;103183.25;;;8.32;91.99
818;BME280;391;51.052;6.954;2023-02-12T07:43:12;103200.44;;;8.42;92.31
818;BME280;391;51.052;6.954;2023-02-12T07:45:15;103202.44;;;8.34;92.08
818;BME280;391;51.052;6.954;2023-02-12T07:47:20;103207.19;;;8.40;92.36
818;BME280;391;51.052;6.954;2023-02-12T07:49:23;103204.59;;;8.40;92.18
818;BME280;391;51.052;6.954;2023-02-12T07:51:26;103206.88;;;8.35;92.18
818;BME280;391;51.052;6.954;2023-02-12T07:53:31;103194.34;;;8.20;92.67
818;BME280;391;51.052;6.954;2023-02-12T07:55:35;103204.31;;;8.25;92.63
818;BME280;391;51.052;6.954;2023-02-12T07:57:38;103209.78;;;8.28;92.83
818;BME280;391;51.052;6.954;2023-02-12T07:59:42;103211.94;;;8.34;92.68
818;BME280;391;51.052;6.954;2023-02-12T08:01:46;103212.63;;;8.43;92.76
818;BME280;391;51.052;6.954;2023-02-12T08:03:50;103211.41;;;8.49;92.73
818;BME280;391;51.052;6.954;2023-02-12T08:05:54;103221.94;;;8.51;92.85
818;BME280;391;51.052;6.954;2023-02-12T08:07:57;103217.66;;;8.52;92.66
818;BME280;391;51.052;6.954;2023-02-12T08:10:02;103217.09;;;8.56;93.15
818;BME280;391;51.052;6.954;2023-02-12T08:12:06;103197.16;;;8.44;92.65
818;BME280;391;51.052;6.954;2023-02-12T08:14:11;103224.25;;;8.58;92.77
818;BME280;391;51.052;6.954;2023-02-12T08:16:17;103222.19;;;8.54;92.73
818;BME280;391;51.052;6.954;2023-02-12T08:18:22;103222.88;;;8.52;92.80
818;BME280;391;51.052;6.954;2023-02-12T08:20:25;103224.78;;;8.54;92.98
818;BME280;391;51.052;6.954;2023-02-12T08:22:29;103223.50;;;8.49;92.96
818;BME280;391;51.052;6.954;2023-02-12T08:24:32;103221.41;;;8.55;93.30
818;BME280;391;51.052;6.954;2023-02-12T08:26:38;103233.06;;;8.60;93.50
818;BME280;391;51.052;6.954;2023-02-12T08:28:43;103226.50;;;8.65;93.17
818;BME280;391;51.052;6.954;2023-02-12T08:30:47;103230.78;;;8.65;92.92
818;BME280;391;51.052;6.954;2023-02-12T08:32:50;103235.09;;;8.64;93.22
818;BME280;391;51.052;6.954;2023-02-12T08:34:55;103231.06;;;8.68;93.25
818;BME280;391;51.052;6.954;2023-02-12T08:36:58;103234.13;;;8.74;93.32
818;BME280;391;51.052;6.954;2023-02-12T08:39:03;103230.16;;;8.79;93.32
818;BME280;391;51.052;6.954;2023-02-12T08:41:09;103232.06;;;8.81;93.11
818;BME280;391;51.052;6.954;2023-02-12T08:43:14;103234.88;;;8.73;92.83
818;BME280;391;51.052;6.954;2023-02-12T08:45:17;103233.75;;;8.69;92.86
818;BME280;391;51.052;6.954;2023-02-12T08:47:21;103240.09;;;8.73;93.20
818;BME280;391;51.052;6.954;2023-02-12T08:49:26;103235.72;;;8.83;93.26
818;BME280;391;51.052;6.954;2023-02-12T08:51:31;103235.50;;;8.92;93.18
818;BME280;391;51.052;6.954;2023-02-12T08:53:35;103239.25;;;8.95;93.29
818;BME280;391;51.052;6.954;2023-02-12T08:55:47;103237.78;;;8.99;93.33
818;BME280;391;51.052;6.954;2023-02-12T08:57:50;103233.25;;;8.96;93.02
818;BME280;391;51.052;6.954;2023-02-12T09:00:00;103235.03;;;8.97;92.79
818;BME280;391;51.052;6.954;2023-02-12T09:02:03;103234.13;;;8.97;93.11
818;BME280;391;51.052;6.954;2023-02-12T09:04:13;103228.06;;;8.96;93.27
818;BME280;391;51.052;6.954;2023-02-12T09:06:20;103237.78;;;8.99;93.13
818;BME280;391;51.052;6.954;2023-02-12T09:08:23;103233.81;;;9.04;92.86
818;BME280;391;51.052;6.954;2023-02-12T09:10:27;103237.00;;;9.12;92.94
818;BME280;391;51.052;6.954;2023-02-12T09:12:30;103234.94;;;9.19;92.79
818;BME280;391;51.052;6.954;2023-02-12T09:14:34;103234.38;;;9.23;92.98
818;BME280;391;51.052;6.954;2023-02-12T09:16:38;103242.66;;;9.29;92.23
818;BME280;391;51.052;6.954;2023-02-12T09:18:42;103242.44;;;9.38;92.66
818;BME280;391;51.052;6.954;2023-02-12T09:20:46;103222.84;;;9.20;92.73
818;BME280;391;51.052;6.954;2023-02-12T09:22:49;103246.06;;;9.28;92.22
818;BME280;391;51.052;6.954;2023-02-12T09:24:55;103245.59;;;9.22;92.33
818;BME280;391;51.052;6.954;2023-02-12T09:26:58;103250.09;;;9.13;92.52
818;BME280;391;51.052;6.954;2023-02-12T09:29:02;103227.69;;;8.92;92.20
818;BME280;391;51.052;6.954;2023-02-12T09:31:08;103242.97;;;8.99;92.30
818;BME280;391;51.052;6.954;2023-02-12T09:33:13;103242.16;;;9.00;92.32
818;BME280;391;51.052;6.954;2023-02-12T09:35:16;103240.84;;;9.05;92.67
818;BME280;391;51.052;6.954;2023-02-12T09:37:20;103242.88;;;9.09;92.10
818;BME280;391;51.052;6.954;2023-02-12T09:39:23;103243.53;;;9.07;92.20
818;BME280;391;51.052;6.954;2023-02-12T09:42:03;103246.72;;;9.14;92.48
818;BME280;391;51.052;6.954;2023-02-12T09:44:16;103246.25;;;9.20;92.09
818;BME280;391;51.052;6.954;2023-02-12T09:46:27;103249.22;;;9.24;92.25
818;BME280;391;51.052;6.954;2023-02-12T09:48:41;103191.94;;;9.01;92.18
818;BME280;391;51.052;6.954;2023-02-12T09:50:51;103202.47;;;9.14;92.13
818;BME280;391;51.052;6.954;2023-02-12T09:52:55;103242.22;;;9.35;91.53
818;BME280;391;51.052;6.954;2023-02-12T09:55:00;103244.00;;;9.36;91.63
818;BME280;391;51.052;6.954;2023-02-12T09:57:13;103247.53;;;9.36;91.83
818;BME280;391;51.052;6.954;2023-02-12T09:59:28;103243.22;;;9.37;91.38
818;BME280;391;51.052;6.954;2023-02-12T10:01:33;103223.31;;;9.37;91.80
818;BME280;391;51.052;6.954;2023-02-12T10:03:38;103255.00;;;9.67;91.64
818;BME280;391;51.052;6.954;2023-02-12T10:05:47;103245.00;;;9.73;91.27
818;BME280;391;51.052;6.954;2023-02-12T10:08:12;103255.78;;;9.66;90.83
818;BME280;391;51.052;6.954;2023-02-12T10:10:34;103263.16;;;9.60;91.00
818;BME280;391;51.052;6.954;2023-02-12T10:12:47;103259.16;;;9.65;90.92
818;BME280;391;51.052;6.954;2023-02-12T10:15:07;103221.03;;;9.42;91.00
818;BME280;391;51.052;6.954;2023-02-12T10:17:18;103254.63;;;9.74;90.84
818;BME280;391;51.052;6.954;2023-02-12T10:19:37;103267.97;;;9.90;90.46
818;BME280;391;51.052;6.954;2023-02-12T10:21:57;103258.31;;;10.00;90.37
818;BME280;391;51.052;6.954;2023-02-12T10:24:22;103231.94;;;9.84;89.93
818;BME280;391;51.052;6.954;2023-02-12T10:26:29;103253.50;;;9.82;89.23
818;BME280;391;51.052;6.954;2023-02-12T10:28:36;103256.44;;;9.75;89.42
818;BME280;391;51.052;6.954;2023-02-12T10:30:44;103248.41;;;9.72;89.31
818;BME280;391;51.052;6.954;2023-02-12T10:32:52;103256.09;;;9.82;89.43
818;BME280;391;51.052;6.954;2023-02-12T10:34:58;103251.53;;;9.91;89.15
818;BME280;391;51.052;6.954;2023-02-12T10:37:04;103259.44;;;10.04;88.64
818;BME280;391;51.052;6.954;2023-02-12T10:39:17;103246.28;;;10.02;88.80
818;BME280;391;51.052;6.954;2023-02-12T10:41:23;103257.16;;;10.20;88.71
818;BME280;391;51.052;6.954;2023-02-12T10:43:28;103235.97;;;10.16;88.41
818;BME280;391;51.052;6.954;2023-02-12T10:45:33;103249.78;;;10.26;87.85
818;BME280;391;51.052;6.954;2023-02-12T10:47:37;103250.03;;;10.18;87.11
818;BME280;391;51.052;6.954;2023-02-12T10:49:41;103249.91;;;10.16;87.36
818;BME280;391;51.052;6.954;2023-02-12T10:51:56;103254.88;;;10.25;86.94
818;BME280;391;51.052;6.954;2023-02-12T10:54:29;103246.88;;;10.35;86.93
818;BME280;391;51.052;6.954;2023-02-12T10:56:35;103243.91;;;10.42;86.50
818;BME280;391;51.052;6.954;2023-02-12T10:58:40;103241.41;;;10.43;86.03
818;BME280;391;51.052;6.954;2023-02-12T11:00:44;103242.53;;;10.47;85.86
818;BME280;391;51.052;6.954;2023-02-12T11:03:00;103249.88;;;10.52;85.85
818;BME280;391;51.052;6.954;2023-02-12T11:05:21;103218.22;;;10.35;85.37
818;BME280;391;51.052;6.954;2023-02-12T11:07:27;103249.22;;;10.43;84.68
818;BME280;391;51.052;6.954;2023-02-12T11:09:34;103219.38;;;10.27;84.50
818;BME280;391;51.052;6.954;2023-02-12T11:11:41;103244.25;;;10.46;84.29
818;BME280;391;51.052;6.954;2023-02-12T11:13:46;103222.06;;;10.40;84.21
818;BME280;391;51.052;6.954;2023-02-12T11:15:55;103239.06;;;10.59;84.00
818;BME280;391;51.052;6.954;2023-02-12T11:18:01;103235.97;;;10.65;84.10
818;BME280;391;51.052;6.954;2023-02-12T11:20:20;103236.06;;;10.67;83.68
818;BME280;391;51.052;6.954;2023-02-12T11:22:26;103236.19;;;10.68;83.47
818;BME280;391;51.052;6.954;2023-02-12T11:24:31;103230.97;;;10.68;83.11
818;BME280;391;51.052;6.954;2023-02-12T11:26:35;103230.97;;;10.68;82.93
818;BME280;391;51.052;6.954;2023-02-12T11:28:52;103228.88;;;10.76;82.92
818;BME280;391;51.052;6.954;2023-02-12T11:30:58;103227.06;;;10.75;82.69
818;BME280;391;51.052;6.954;2023-02-12T11:33:25;103228.41;;;10.81;83.25
818;BME280;391;51.052;6.954;2023-02-12T11:35:29;103216.59;;;11.39;85.53
818;BME280;391;51.052;6.954;2023-02-12T11:37:41;103223.94;;;11.71;83.85
818;BME280;391;51.052;6.954;2023-02-12T11:39:47;103213.84;;;11.63;82.67
818;BME280;391;51.052;6.954;2023-02-12T11:41:52;103228.94;;;11.54;81.83
818;BME280;391;51.052;6.954;2023-02-12T11:43:57;103202.13;;;11.31;80.96
818;BME280;391;51.052;6.954;2023-02-12T11:46:01;103206.03;;;11.24;80.80
818;BME280;391;51.052;6.954;2023-02-12T11:48:15;103218.38;;;11.27;80.35
818;BME280;391;51.052;6.954;2023-02-12T11:50:24;103204.03;;;11.20;80.14
818;BME280;391;51.052;6.954;2023-02-12T11:52:31;103209.88;;;11.16;79.76